createdAt,value
2023-04-20T00:00:59.758Z,5.57
2023-04-20T00:04:01.464Z,5.40
2023-04-20T00:07:03.250Z,5.38
2023-04-20T00:10:05.553Z,5.10
2023-04-20T00:13:07.375Z,5.03
2023-04-20T00:16:08.924Z,5.32
2023-04-20T00:19:10.564Z,5.35
2023-04-20T00:22:12.415Z,5.07
2023-04-20T00:25:13.952Z,5.00
2023-04-20T00:28:15.624Z,5.05
2023-04-20T00:31:17.891Z,4.95
2023-04-20T00:34:19.578Z,4.82
2023-04-20T00:37:21.182Z,4.90
2023-04-20T00:40:22.829Z,4.90
2023-04-20T00:43:24.758Z,4.88
2023-04-20T00:46:27.015Z,4.82
2023-04-20T00:49:30.704Z,4.93
2023-04-20T00:52:32.914Z,5.35
2023-04-20T00:55:37.642Z,5.25
2023-04-20T00:58:41.870Z,4.82
2023-04-20T01:01:43.570Z,5.53
2023-04-20T01:04:47.186Z,5.00
2023-04-20T01:07:49.424Z,4.93
2023-04-20T01:10:51.163Z,4.65
2023-04-20T01:13:52.794Z,5.20
2023-04-20T01:16:55.476Z,4.78
2023-04-20T01:19:57.166Z,5.20
2023-04-20T01:22:58.704Z,4.18
2023-04-20T01:26:00.245Z,4.47
2023-04-20T01:29:01.789Z,4.60
2023-04-20T01:32:04.088Z,4.70
2023-04-20T01:35:06.588Z,4.55
2023-04-20T01:38:08.295Z,5.20
2023-04-20T01:41:10.842Z,5.20
2023-04-20T01:44:12.533Z,4.82
2023-04-20T01:47:14.276Z,4.45
2023-04-20T01:50:15.867Z,4.90
2023-04-20T01:53:17.667Z,4.35
2023-04-20T01:56:19.208Z,4.47
2023-04-20T01:59:20.964Z,4.32
2023-04-20T02:02:22.638Z,4.70
2023-04-20T02:05:24.380Z,4.72
2023-04-20T02:08:26.006Z,5.03
2023-04-20T02:11:27.586Z,4.43
2023-04-20T02:14:29.186Z,4.43
2023-04-20T02:17:32.748Z,5.28
2023-04-20T02:20:35.361Z,4.72
2023-04-20T02:23:37.078Z,4.40
2023-04-20T02:26:38.652Z,4.60
2023-04-20T02:29:40.360Z,4.70
2023-04-20T02:32:42.090Z,4.88
2023-04-20T02:35:43.682Z,6.15
2023-04-20T02:38:45.440Z,4.70
2023-04-20T02:41:46.953Z,4.35
2023-04-20T02:44:48.543Z,4.65
2023-04-20T02:47:50.158Z,4.65
2023-04-20T02:50:55.275Z,4.50
2023-04-20T02:53:56.813Z,5.13
2023-04-20T02:56:58.727Z,4.95
2023-04-20T03:00:00.430Z,5.45
2023-04-20T03:03:02.144Z,5.22
2023-04-20T03:06:04.165Z,5.22
2023-04-20T03:09:05.909Z,5.40
2023-04-20T03:12:07.579Z,4.82
2023-04-20T03:15:09.976Z,5.72
2023-04-20T03:18:11.783Z,4.93
2023-04-20T03:21:14.814Z,5.43
2023-04-20T03:24:16.973Z,5.22
2023-04-20T03:27:18.531Z,5.13
2023-04-20T03:30:20.149Z,5.40
2023-04-20T03:33:21.709Z,5.32
2023-04-20T03:36:23.296Z,5.82
2023-04-20T03:39:24.887Z,6.30
2023-04-20T03:42:26.461Z,5.72
2023-04-20T03:45:28.293Z,5.65
2023-04-20T03:48:29.963Z,5.60
2023-04-20T03:51:32.256Z,6.47
2023-04-20T03:54:33.819Z,6.65
2023-04-20T03:57:35.451Z,6.43
2023-04-20T04:00:37.107Z,6.85
2023-04-20T04:03:39.088Z,6.28
2023-04-20T04:06:41.132Z,6.60
2023-04-20T04:09:42.764Z,6.82
2023-04-20T04:12:44.903Z,6.72
2023-04-20T04:15:46.559Z,6.30
2023-04-20T04:18:48.154Z,6.60
2023-04-20T04:21:49.727Z,6.30
2023-04-20T04:24:51.577Z,7.03
2023-04-20T04:27:53.146Z,6.45
2023-04-20T04:30:54.744Z,7.50
2023-04-20T04:33:56.335Z,6.60
2023-04-20T04:36:57.978Z,6.60
2023-04-20T04:39:59.704Z,6.80
2023-04-20T04:43:01.311Z,6.30
2023-04-20T04:46:09.899Z,7.15
2023-04-20T04:49:11.818Z,6.50
2023-04-20T04:52:13.445Z,6.28
2023-04-20T04:55:16.335Z,6.05
2023-04-20T04:58:18.264Z,6.30
2023-04-20T05:01:19.920Z,6.50
2023-04-20T05:04:21.800Z,6.55
2023-04-20T05:07:24.633Z,6.80
2023-04-20T05:10:26.249Z,6.13
2023-04-20T05:13:27.847Z,6.57
2023-04-20T05:16:29.442Z,6.70
2023-04-20T05:19:31.163Z,6.72
2023-04-20T05:22:33.023Z,6.57
2023-04-20T05:25:35.132Z,7.07
2023-04-20T05:28:36.682Z,7.03
2023-04-20T05:31:38.271Z,6.82
2023-04-20T05:34:39.976Z,6.97
2023-04-20T05:37:41.747Z,6.60
2023-04-20T05:40:43.425Z,6.70
2023-04-20T05:43:45.084Z,6.90
2023-04-20T05:46:46.671Z,7.00
2023-04-20T05:49:48.251Z,6.70
2023-04-20T05:52:50.146Z,7.55
2023-04-20T05:55:51.971Z,6.95
2023-04-20T05:58:57.178Z,6.72
2023-04-20T06:01:58.791Z,7.47
2023-04-20T06:05:00.932Z,7.60
2023-04-20T06:08:02.707Z,7.50
2023-04-20T06:11:04.407Z,7.72
2023-04-20T06:14:06.020Z,8.02
2023-04-20T06:17:07.571Z,8.52
2023-04-20T06:20:10.494Z,7.43
2023-04-20T06:23:12.289Z,7.55
2023-04-20T06:26:13.852Z,7.63
2023-04-20T06:29:15.921Z,8.00
2023-04-20T06:32:17.953Z,7.65
2023-04-20T06:35:19.795Z,7.97
2023-04-20T06:38:21.426Z,8.15
2023-04-20T06:41:23.046Z,9.23
2023-04-20T06:44:24.619Z,8.27
2023-04-20T06:47:31.452Z,8.32
2023-04-20T06:50:33.281Z,7.85
2023-04-20T06:53:35.026Z,9.13
2023-04-20T06:56:36.734Z,8.20
2023-04-20T06:59:38.276Z,8.50
2023-04-20T07:02:44.394Z,9.35
2023-04-20T07:05:46.536Z,8.93
2023-04-20T07:08:48.226Z,9.30
2023-04-20T07:11:49.939Z,9.32
2023-04-20T07:14:51.588Z,9.55
2023-04-20T07:17:53.147Z,10.05
2023-04-20T07:20:54.847Z,10.43
2023-04-20T07:23:58.800Z,10.50
2023-04-20T07:27:00.857Z,9.73
2023-04-20T07:30:02.697Z,9.52
2023-04-20T07:33:04.477Z,10.00
2023-04-20T07:36:06.420Z,11.57
2023-04-20T07:39:08.035Z,12.52
2023-04-20T07:42:09.679Z,11.30
2023-04-20T07:45:13.719Z,9.90
2023-04-20T07:48:15.417Z,10.27
2023-04-20T07:51:17.105Z,10.80
2023-04-20T07:54:18.690Z,10.52
2023-04-20T07:57:20.991Z,9.48
2023-04-20T08:00:22.880Z,11.07
2023-04-20T08:03:24.642Z,10.60
2023-04-20T08:06:27.197Z,9.85
2023-04-20T08:09:29.537Z,9.93
2023-04-20T08:12:31.172Z,9.90
2023-04-20T08:15:32.800Z,9.27
2023-04-20T08:18:34.498Z,7.82
2023-04-20T08:21:40.116Z,8.70
2023-04-20T08:24:41.705Z,8.75
2023-04-20T08:27:43.264Z,8.77
2023-04-20T08:30:46.729Z,9.52
2023-04-20T08:33:48.314Z,9.57
2023-04-20T08:36:49.953Z,9.18
2023-04-20T08:39:51.560Z,10.27
2023-04-20T08:42:53.199Z,10.02
2023-04-20T08:45:59.582Z,9.60
2023-04-20T08:49:04.836Z,10.38
2023-04-20T08:52:10.580Z,10.35
2023-04-20T08:55:16.468Z,9.77
2023-04-20T08:58:18.407Z,10.63
2023-04-20T09:01:34.761Z,10.73
2023-04-20T09:04:37.420Z,9.98
2023-04-20T09:07:39.127Z,9.85
2023-04-20T09:10:45.063Z,11.00
2023-04-20T09:13:58.710Z,11.13
2023-04-20T09:17:05.205Z,10.93
2023-04-20T09:20:08.419Z,10.82
2023-04-20T09:23:16.398Z,10.90
2023-04-20T09:26:18.894Z,12.27
2023-04-20T09:29:23.259Z,10.80
2023-04-20T09:32:26.172Z,9.60
2023-04-20T09:35:27.785Z,10.07
2023-04-20T09:38:30.766Z,10.23
2023-04-20T09:41:33.046Z,11.25
2023-04-20T09:44:38.540Z,12.07
2023-04-20T09:47:42.757Z,11.15
2023-04-20T09:50:50.022Z,12.32
2023-04-20T09:53:54.625Z,13.10
2023-04-20T09:57:01.644Z,13.13
2023-04-20T10:00:06.856Z,14.70
2023-04-20T10:03:10.423Z,14.63
2023-04-20T10:06:26.228Z,13.68
2023-04-20T10:09:27.808Z,13.07
2023-04-20T10:12:29.375Z,12.50
2023-04-20T10:15:41.516Z,12.20
2023-04-20T10:18:43.171Z,12.80
2023-04-20T10:21:47.296Z,12.27
2023-04-20T10:24:48.855Z,11.73
2023-04-20T10:27:55.846Z,10.05
2023-04-20T10:30:57.454Z,8.93
2023-04-20T10:33:59.033Z,7.70
2023-04-20T10:37:11.394Z,7.20
2023-04-20T10:40:13.326Z,7.57
2023-04-20T10:43:21.354Z,8.07
2023-04-20T10:46:24.471Z,7.68
2023-04-20T10:49:31.111Z,7.22
2023-04-20T10:52:34.661Z,7.28
2023-04-20T10:55:36.206Z,6.50
2023-04-20T10:58:37.867Z,6.70
2023-04-20T11:01:40.887Z,6.57
2023-04-20T11:04:43.485Z,6.47
2023-04-20T11:07:57.601Z,6.07
2023-04-20T11:10:59.215Z,6.00
2023-04-20T11:14:08.625Z,6.65
2023-04-20T11:17:10.356Z,6.28
2023-04-20T11:20:14.937Z,6.30
2023-04-20T11:23:16.500Z,6.65
2023-04-20T11:26:18.679Z,6.32
2023-04-20T11:29:39.799Z,6.40
2023-04-20T11:32:41.724Z,6.43
2023-04-20T11:35:44.221Z,6.78
2023-04-20T11:38:46.050Z,7.22
2023-04-20T11:41:47.602Z,6.72
2023-04-20T11:44:49.569Z,7.10
2023-04-20T11:47:52.534Z,6.75
2023-04-20T11:50:54.161Z,6.45
2023-04-20T11:53:56.078Z,5.82
2023-04-20T11:56:58.930Z,5.85
2023-04-20T12:00:00.933Z,5.05
2023-04-20T12:03:02.851Z,5.30
2023-04-20T12:06:04.833Z,5.40
2023-04-20T12:09:06.461Z,5.50
2023-04-20T12:12:11.298Z,5.70
2023-04-20T12:15:12.871Z,5.82
2023-04-20T12:18:14.442Z,5.60
2023-04-20T12:21:16.019Z,6.13
2023-04-20T12:24:17.613Z,6.07
2023-04-20T12:27:20.273Z,5.32
2023-04-20T12:30:21.870Z,5.70
2023-04-20T12:33:23.666Z,5.90
2023-04-20T12:36:25.780Z,6.50
2023-04-20T12:39:27.376Z,7.05
2023-04-20T12:42:29.325Z,5.82
2023-04-20T12:45:31.151Z,6.47
2023-04-20T12:48:32.693Z,6.10
2023-04-20T12:51:34.255Z,6.55
2023-04-20T12:54:35.915Z,7.25
2023-04-20T12:57:38.126Z,7.25
2023-04-20T13:00:41.982Z,7.38
2023-04-20T13:03:43.844Z,6.85
2023-04-20T13:06:45.721Z,6.50
2023-04-20T13:09:47.341Z,6.53
2023-04-20T13:12:48.965Z,6.68
2023-04-20T13:15:53.070Z,6.50
2023-04-20T13:18:54.716Z,7.10
2023-04-20T13:21:56.740Z,7.65
2023-04-20T13:24:58.302Z,7.78
2023-04-20T13:28:01.691Z,10.20
2023-04-20T13:31:03.462Z,7.47
2023-04-20T13:34:05.138Z,7.57
2023-04-20T13:37:07.123Z,7.53
2023-04-20T13:40:09.811Z,7.03
2023-04-20T13:43:12.829Z,7.47
2023-04-20T13:46:15.741Z,7.80
2023-04-20T13:49:17.333Z,8.30
2023-04-20T13:52:19.435Z,7.93
2023-04-20T13:55:21.140Z,8.45
2023-04-20T13:58:22.738Z,9.05
2023-04-20T14:01:25.792Z,7.88
2023-04-20T14:04:27.588Z,8.40
2023-04-20T14:07:29.366Z,8.63
2023-04-20T14:10:38.157Z,10.40
2023-04-20T14:13:41.039Z,10.55
2023-04-20T14:16:47.016Z,9.98
2023-04-20T14:19:49.486Z,9.75
2023-04-20T14:22:51.096Z,10.48
2023-04-20T14:25:52.675Z,10.40
2023-04-20T14:28:54.622Z,9.95
2023-04-20T14:31:56.223Z,11.77
2023-04-20T14:34:57.813Z,10.57
2023-04-20T14:37:59.325Z,9.48
2023-04-20T14:41:01.183Z,9.50
2023-04-20T14:44:02.774Z,11.18
2023-04-20T14:47:04.407Z,10.52
2023-04-20T14:50:08.030Z,9.63
2023-04-20T14:53:09.675Z,11.38
2023-04-20T14:56:11.252Z,10.88
2023-04-20T14:59:12.917Z,10.73
2023-04-20T15:02:14.537Z,10.52
2023-04-20T15:05:16.636Z,11.13
2023-04-20T15:08:18.508Z,9.93
2023-04-20T15:11:20.252Z,10.30
2023-04-20T15:14:21.854Z,10.30
2023-04-20T15:17:23.459Z,10.82
2023-04-20T15:20:25.160Z,10.40
2023-04-20T15:23:26.712Z,11.00
2023-04-20T15:26:28.270Z,10.10
2023-04-20T15:29:30.209Z,10.38
2023-04-20T15:32:33.769Z,10.07
2023-04-20T15:35:35.494Z,9.77
2023-04-20T15:38:37.066Z,9.65
2023-04-20T15:41:38.720Z,10.30
2023-04-20T15:44:41.390Z,9.25
2023-04-20T15:47:42.993Z,8.50
2023-04-20T15:50:44.751Z,7.85
2023-04-20T15:53:50.358Z,8.15
2023-04-20T15:56:52.046Z,8.77
2023-04-20T15:59:53.747Z,6.75
2023-04-20T16:02:55.467Z,6.70
2023-04-20T16:05:57.147Z,7.05
2023-04-20T16:08:58.831Z,8.65
2023-04-20T16:12:03.858Z,6.55
2023-04-20T16:15:06.037Z,7.00
2023-04-20T16:18:07.733Z,7.30
2023-04-20T16:21:09.328Z,7.18
2023-04-20T16:24:10.877Z,7.20
2023-04-20T16:27:12.794Z,7.38
2023-04-20T16:30:14.565Z,7.72
2023-04-20T16:33:16.171Z,7.47
2023-04-20T16:36:17.874Z,8.10
2023-04-20T16:39:19.492Z,7.57
2023-04-20T16:42:21.250Z,7.65
2023-04-20T16:45:22.981Z,8.25
2023-04-20T16:48:24.682Z,7.75
2023-04-20T16:51:27.098Z,7.68
2023-04-20T16:54:28.750Z,7.53
2023-04-20T16:57:31.909Z,7.75
2023-04-20T17:00:34.279Z,7.13
2023-04-20T17:03:36.121Z,7.00
2023-04-20T17:06:37.915Z,6.85
2023-04-20T17:09:39.883Z,6.40
2023-04-20T17:12:41.964Z,7.05
2023-04-20T17:15:44.994Z,7.05
2023-04-20T17:18:46.525Z,6.97
2023-04-20T17:21:48.135Z,6.68
2023-04-20T17:24:49.782Z,6.80
2023-04-20T17:27:51.495Z,7.38
2023-04-20T17:30:53.150Z,7.50
2023-04-20T17:33:55.594Z,7.32
2023-04-20T17:36:57.441Z,7.65
2023-04-20T17:39:58.960Z,6.82
2023-04-20T17:43:01.435Z,7.50
2023-04-20T17:46:03.209Z,7.28
2023-04-20T17:49:04.811Z,7.32
2023-04-20T17:52:06.868Z,7.82
2023-04-20T17:55:10.298Z,8.05
2023-04-20T17:58:12.843Z,7.40
2023-04-20T18:01:14.584Z,8.65
2023-04-20T18:04:16.387Z,8.25
2023-04-20T18:07:18.692Z,7.85
2023-04-20T18:10:20.427Z,8.13
2023-04-20T18:13:22.051Z,8.23
2023-04-20T18:16:23.808Z,8.35
2023-04-20T18:19:25.503Z,8.55
2023-04-20T18:22:27.075Z,8.75
2023-04-20T18:25:28.674Z,8.95
2023-04-20T18:28:30.595Z,9.20
2023-04-20T18:31:32.204Z,9.07
2023-04-20T18:34:33.872Z,8.38
2023-04-20T18:37:35.596Z,9.38
2023-04-20T18:40:37.412Z,9.45
2023-04-20T18:43:38.954Z,9.75
2023-04-20T18:46:42.251Z,10.52
2023-04-20T18:49:44.037Z,9.85
2023-04-20T18:52:45.954Z,10.35
2023-04-20T18:55:47.741Z,10.82
2023-04-20T18:58:49.394Z,10.05
2023-04-20T19:01:52.409Z,9.75
2023-04-20T19:04:54.209Z,10.50
2023-04-20T19:07:55.730Z,11.57
2023-04-20T19:10:57.655Z,10.90
2023-04-20T19:13:59.220Z,10.98
2023-04-20T19:17:02.036Z,11.70
2023-04-20T19:20:04.994Z,11.35
2023-04-20T19:23:06.578Z,11.98
2023-04-20T19:26:08.166Z,12.60
2023-04-20T19:29:12.241Z,11.38
2023-04-20T19:32:13.881Z,12.52
2023-04-20T19:35:15.598Z,12.85
2023-04-20T19:38:21.584Z,13.77
2023-04-20T19:41:23.232Z,13.23
2023-04-20T19:44:24.834Z,13.30
2023-04-20T19:47:27.297Z,13.50
2023-04-20T19:50:29.030Z,13.55
2023-04-20T19:53:31.682Z,14.48
2023-04-20T19:56:33.664Z,14.13
2023-04-20T19:59:37.551Z,13.70
2023-04-20T20:02:40.344Z,15.48
2023-04-20T20:05:43.439Z,15.02
2023-04-20T20:08:45.149Z,15.23
2023-04-20T20:11:49.851Z,16.20
2023-04-20T20:14:51.435Z,15.85
2023-04-20T20:17:55.366Z,15.98
2023-04-20T20:20:56.978Z,15.68
2023-04-20T20:23:58.525Z,16.63
2023-04-20T20:27:00.114Z,17.90
2023-04-20T20:30:01.709Z,18.33
2023-04-20T20:33:03.688Z,19.92
2023-04-20T20:36:06.753Z,21.02
2023-04-20T20:39:09.100Z,21.40
2023-04-20T20:42:12.463Z,23.45
2023-04-20T20:45:14.187Z,22.63
2023-04-20T20:48:15.769Z,22.48
2023-04-20T20:51:17.586Z,25.35
2023-04-20T20:54:21.948Z,24.35
2023-04-20T20:57:27.819Z,26.33
2023-04-20T21:00:29.894Z,27.50
2023-04-20T21:03:31.687Z,29.23
2023-04-20T21:06:33.740Z,27.60
2023-04-20T21:09:35.360Z,25.90
2023-04-20T21:12:37.226Z,27.20
2023-04-20T21:15:38.758Z,28.10
2023-04-20T21:18:40.336Z,26.17
2023-04-20T21:21:41.893Z,27.20
2023-04-20T21:24:43.717Z,26.95
2023-04-20T21:27:45.334Z,26.00
2023-04-20T21:30:46.906Z,26.67
2023-04-20T21:33:48.503Z,24.17
2023-04-20T21:36:50.154Z,25.90
2023-04-20T21:39:51.729Z,24.15
2023-04-20T21:42:53.283Z,26.77
2023-04-20T21:45:55.128Z,27.80
2023-04-20T21:48:56.771Z,22.27
2023-04-20T21:51:58.698Z,26.88
2023-04-20T21:55:00.380Z,29.30
2023-04-20T21:58:01.959Z,30.88
2023-04-20T22:01:03.745Z,28.23
2023-04-20T22:04:05.768Z,29.65
2023-04-20T22:07:07.976Z,30.38
2023-04-20T22:10:09.895Z,31.25
2023-04-20T22:13:13.304Z,31.30
2023-04-20T22:16:15.341Z,29.23
2023-04-20T22:19:17.486Z,32.17
2023-04-20T22:22:19.249Z,33.53
2023-04-20T22:25:21.007Z,36.15
2023-04-20T22:28:22.644Z,30.85
2023-04-20T22:31:24.612Z,33.05
2023-04-20T22:34:26.173Z,30.85
2023-04-20T22:37:28.204Z,35.38
2023-04-20T22:40:29.984Z,32.97
2023-04-20T22:43:31.583Z,32.90
2023-04-20T22:46:33.805Z,33.92
2023-04-20T22:49:35.788Z,31.75
2023-04-20T22:52:38.539Z,30.95
2023-04-20T22:55:40.971Z,31.00
2023-04-20T22:58:42.529Z,32.28
2023-04-20T23:01:44.095Z,32.88
2023-04-20T23:04:45.750Z,30.27
2023-04-20T23:07:47.519Z,32.80
2023-04-20T23:10:49.178Z,27.95
2023-04-20T23:13:50.721Z,29.45
2023-04-20T23:16:52.382Z,29.65
2023-04-20T23:19:55.056Z,31.70
2023-04-20T23:22:56.571Z,28.50
2023-04-20T23:25:58.157Z,29.67
2023-04-20T23:28:59.718Z,27.83
2023-04-20T23:32:01.621Z,29.20
2023-04-20T23:35:03.329Z,28.60
2023-04-20T23:38:05.389Z,30.17
2023-04-20T23:41:11.335Z,30.20
2023-04-20T23:44:13.057Z,27.63
2023-04-20T23:47:15.488Z,30.42
2023-04-20T23:50:17.055Z,30.95
2023-04-20T23:53:18.703Z,26.33
2023-04-20T23:56:20.291Z,30.48
2023-04-20T23:59:21.856Z,30.83
